sensor_id;sensor_type;location;lat;lon;timestamp;pressure;altitude;pressure_sealevel;temperature;humidity
69214;BME280;56325;47.030;18.518;2023-05-07T05:12:04;100484.28;;;17.11;76.64
69214;BME280;56325;47.030;18.518;2023-05-07T05:14:41;100484.28;;;17.11;76.64
69214;BME280;56325;47.030;18.518;2023-05-07T05:17:16;100481.13;;;16.55;78.32
69214;BME280;56325;47.030;18.518;2023-05-07T05:19:51;100484.91;;;16.52;78.44
69214;BME280;56325;47.030;18.518;2023-05-07T05:22:25;100480.06;;;16.47;78.27
69214;BME280;56325;47.030;18.518;2023-05-07T05:25:04;100472.78;;;16.50;78.62
69214;BME280;56325;47.030;18.518;2023-05-07T05:27:40;100481.56;;;16.74;77.15
69214;BME280;56325;47.030;18.518;2023-05-07T05:30:15;100490.28;;;16.61;78.01
69214;BME280;56325;47.030;18.518;2023-05-07T05:32:50;100487.56;;;16.67;78.17
69214;BME280;56325;47.030;18.518;2023-05-07T05:35:25;100487.91;;;16.80;77.32
69214;BME280;56325;47.030;18.518;2023-05-07T05:37:59;100498.78;;;16.84;77.32
69214;BME280;56325;47.030;18.518;2023-05-07T05:40:34;100492.78;;;16.96;77.22
69214;BME280;56325;47.030;18.518;2023-05-07T05:43:10;100488.78;;;17.03;76.95
69214;BME280;56325;47.030;18.518;2023-05-07T05:45:44;100486.97;;;16.94;78.35
69214;BME280;56325;47.030;18.518;2023-05-07T05:48:19;100494.59;;;17.05;78.45
69214;BME280;56325;47.030;18.518;2023-05-07T05:50:54;100496.38;;;17.02;78.88
69214;BME280;56325;47.030;18.518;2023-05-07T05:53:29;100495.63;;;17.08;79.03
69214;BME280;56325;47.030;18.518;2023-05-07T05:56:04;100498.22;;;17.22;78.97
69214;BME280;56325;47.030;18.518;2023-05-07T05:58:40;100494.09;;;17.01;79.87
69214;BME280;56325;47.030;18.518;2023-05-07T06:03:15;100500.63;;;17.57;77.99
69214;BME280;56325;47.030;18.518;2023-05-07T06:05:51;100500.63;;;17.57;77.99
69214;BME280;56325;47.030;18.518;2023-05-07T06:08:26;100505.44;;;16.97;80.26
69214;BME280;56325;47.030;18.518;2023-05-07T06:11:01;100506.34;;;16.83;80.55
69214;BME280;56325;47.030;18.518;2023-05-07T06:13:37;100500.44;;;17.72;86.91
69214;BME280;56325;47.030;18.518;2023-05-07T06:16:11;100500.06;;;17.42;79.93
69214;BME280;56325;47.030;18.518;2023-05-07T06:18:48;100502.34;;;17.44;83.78
69214;BME280;56325;47.030;18.518;2023-05-07T06:21:23;100494.44;;;18.07;82.82
69214;BME280;56325;47.030;18.518;2023-05-07T06:23:57;100502.97;;;17.70;79.21
69214;BME280;56325;47.030;18.518;2023-05-07T06:26:34;100511.75;;;17.57;79.70
69214;BME280;56325;47.030;18.518;2023-05-07T06:29:09;100510.47;;;17.58;78.93
69214;BME280;56325;47.030;18.518;2023-05-07T06:31:44;100515.19;;;17.30;79.84
69214;BME280;56325;47.030;18.518;2023-05-07T06:34:22;100520.44;;;17.17;80.62
69214;BME280;56325;47.030;18.518;2023-05-07T06:37:01;100518.97;;;16.84;82.05
69214;BME280;56325;47.030;18.518;2023-05-07T06:39:36;100523.09;;;16.94;81.41
69214;BME280;56325;47.030;18.518;2023-05-07T06:42:12;100534.66;;;16.87;81.88
69214;BME280;56325;47.030;18.518;2023-05-07T06:44:49;100533.44;;;16.94;82.02
69214;BME280;56325;47.030;18.518;2023-05-07T06:47:23;100529.09;;;16.87;82.11
69214;BME280;56325;47.030;18.518;2023-05-07T06:49:59;100530.69;;;16.99;81.34
69214;BME280;56325;47.030;18.518;2023-05-07T06:52:35;100539.72;;;16.89;81.74
69214;BME280;56325;47.030;18.518;2023-05-07T06:55:10;100538.13;;;16.77;82.09
69214;BME280;56325;47.030;18.518;2023-05-07T06:57:45;100532.06;;;16.78;82.41
69214;BME280;56325;47.030;18.518;2023-05-07T07:00:20;100528.56;;;16.83;83.14
69214;BME280;56325;47.030;18.518;2023-05-07T07:02:56;100528.87;;;16.91;82.68
69214;BME280;56325;47.030;18.518;2023-05-07T07:05:32;100533.41;;;16.88;82.86
69214;BME280;56325;47.030;18.518;2023-05-07T07:08:08;100531.66;;;16.91;82.96
69214;BME280;56325;47.030;18.518;2023-05-07T07:10:42;100530.69;;;16.99;82.45
69214;BME280;56325;47.030;18.518;2023-05-07T07:13:18;100536.97;;;16.94;83.02
69214;BME280;56325;47.030;18.518;2023-05-07T07:15:53;100538.09;;;17.14;82.26
69214;BME280;56325;47.030;18.518;2023-05-07T07:18:28;100529.78;;;17.19;82.33
69214;BME280;56325;47.030;18.518;2023-05-07T07:21:05;100536.38;;;17.22;82.49
69214;BME280;56325;47.030;18.518;2023-05-07T07:23:40;100543.22;;;17.26;82.20
69214;BME280;56325;47.030;18.518;2023-05-07T07:26:14;100542.41;;;17.15;83.12
69214;BME280;56325;47.030;18.518;2023-05-07T07:28:49;100534.41;;;17.39;81.96
69214;BME280;56325;47.030;18.518;2023-05-07T07:31:24;100541.25;;;17.44;82.36
69214;BME280;56325;47.030;18.518;2023-05-07T07:33:59;100546.34;;;17.51;81.92
69214;BME280;56325;47.030;18.518;2023-05-07T07:36:35;100537.09;;;17.71;80.88
69214;BME280;56325;47.030;18.518;2023-05-07T07:39:19;100541.72;;;17.96;79.56
69214;BME280;56325;47.030;18.518;2023-05-07T07:41:55;100533.66;;;18.09;78.58
69214;BME280;56325;47.030;18.518;2023-05-07T07:44:32;100548.06;;;18.02;78.91
69214;BME280;56325;47.030;18.518;2023-05-07T07:47:07;100543.47;;;17.82;78.79
69214;BME280;56325;47.030;18.518;2023-05-07T07:49:43;100543.25;;;18.08;77.89
69214;BME280;56325;47.030;18.518;2023-05-07T07:52:20;100543.78;;;18.29;77.97
69214;BME280;56325;47.030;18.518;2023-05-07T07:54:54;100540.22;;;18.28;79.58
69214;BME280;56325;47.030;18.518;2023-05-07T07:57:30;100548.06;;;18.30;78.43
69214;BME280;56325;47.030;18.518;2023-05-07T08:00:06;100542.78;;;18.60;76.68
69214;BME280;56325;47.030;18.518;2023-05-07T08:02:48;100546.34;;;18.83;76.52
69214;BME280;56325;47.030;18.518;2023-05-07T08:05:24;100546.81;;;19.04;74.47
69214;BME280;56325;47.030;18.518;2023-05-07T08:08:00;100542.75;;;19.05;73.35
69214;BME280;56325;47.030;18.518;2023-05-07T08:10:36;100549.78;;;19.17;73.00
69214;BME280;56325;47.030;18.518;2023-05-07T08:13:12;100552.81;;;19.19;72.64
69214;BME280;56325;47.030;18.518;2023-05-07T08:15:48;100543.16;;;19.31;70.66
69214;BME280;56325;47.030;18.518;2023-05-07T08:18:23;100540.06;;;19.46;71.20
69214;BME280;56325;47.030;18.518;2023-05-07T08:20:59;100543.84;;;19.59;71.21
69214;BME280;56325;47.030;18.518;2023-05-07T08:23:35;100541.44;;;19.86;71.15
69214;BME280;56325;47.030;18.518;2023-05-07T08:26:11;100543.62;;;19.98;69.53
69214;BME280;56325;47.030;18.518;2023-05-07T08:28:46;100547.28;;;20.18;69.00
69214;BME280;56325;47.030;18.518;2023-05-07T08:31:20;100550.91;;;20.07;68.40
69214;BME280;56325;47.030;18.518;2023-05-07T08:33:55;100544.94;;;19.92;66.66
69214;BME280;56325;47.030;18.518;2023-05-07T08:36:30;100544.19;;;19.91;67.27
69214;BME280;56325;47.030;18.518;2023-05-07T08:39:06;100538.72;;;20.10;67.86
69214;BME280;56325;47.030;18.518;2023-05-07T08:41:44;100537.84;;;20.26;68.55
69214;BME280;56325;47.030;18.518;2023-05-07T08:44:20;100545.97;;;20.24;67.85
69214;BME280;56325;47.030;18.518;2023-05-07T08:46:56;100532.81;;;20.19;68.59
69214;BME280;56325;47.030;18.518;2023-05-07T08:49:33;100539.75;;;20.07;70.15
69214;BME280;56325;47.030;18.518;2023-05-07T08:52:09;100543.34;;;20.43;69.40
69214;BME280;56325;47.030;18.518;2023-05-07T08:54:45;100533.06;;;20.57;67.78
69214;BME280;56325;47.030;18.518;2023-05-07T08:57:21;100537.00;;;20.43;67.54
69214;BME280;56325;47.030;18.518;2023-05-07T08:59:57;100516.66;;;20.72;67.78
69214;BME280;56325;47.030;18.518;2023-05-07T09:02:35;100523.53;;;20.71;68.15
69214;BME280;56325;47.030;18.518;2023-05-07T09:05:11;100525.97;;;20.80;66.48
69214;BME280;56325;47.030;18.518;2023-05-07T09:07:47;100524.63;;;20.62;66.05
69214;BME280;56325;47.030;18.518;2023-05-07T09:10:29;100531.53;;;20.56;63.55
69214;BME280;56325;47.030;18.518;2023-05-07T09:13:04;100530.75;;;20.61;64.44
69214;BME280;56325;47.030;18.518;2023-05-07T09:15:39;100524.59;;;20.68;65.47
69214;BME280;56325;47.030;18.518;2023-05-07T09:18:14;100538.50;;;20.74;66.64
69214;BME280;56325;47.030;18.518;2023-05-07T09:20:50;100539.94;;;21.05;66.49
69214;BME280;56325;47.030;18.518;2023-05-07T09:23:26;100533.09;;;21.30;62.50
69214;BME280;56325;47.030;18.518;2023-05-07T09:26:02;100537.97;;;21.48;61.43
69214;BME280;56325;47.030;18.518;2023-05-07T09:28:39;100545.44;;;21.40;59.42
69214;BME280;56325;47.030;18.518;2023-05-07T09:31:15;100541.94;;;21.10;58.78
69214;BME280;56325;47.030;18.518;2023-05-07T09:33:54;100540.53;;;20.98;58.68
69214;BME280;56325;47.030;18.518;2023-05-07T09:36:29;100545.72;;;21.12;59.05
69214;BME280;56325;47.030;18.518;2023-05-07T09:39:06;100540.09;;;21.61;59.02
69214;BME280;56325;47.030;18.518;2023-05-07T09:41:45;100533.56;;;22.09;58.46
69214;BME280;56325;47.030;18.518;2023-05-07T09:44:21;100542.63;;;21.97;57.80
69214;BME280;56325;47.030;18.518;2023-05-07T09:46:59;100542.66;;;21.78;56.18
69214;BME280;56325;47.030;18.518;2023-05-07T09:49:37;100545.50;;;21.91;58.03
69214;BME280;56325;47.030;18.518;2023-05-07T09:52:16;100544.47;;;21.94;57.06
69214;BME280;56325;47.030;18.518;2023-05-07T09:54:52;100540.81;;;21.80;56.35
69214;BME280;56325;47.030;18.518;2023-05-07T09:57:30;100543.41;;;21.78;57.64
69214;BME280;56325;47.030;18.518;2023-05-07T10:00:07;100555.44;;;21.73;56.80
69214;BME280;56325;47.030;18.518;2023-05-07T10:02:52;100548.19;;;21.65;57.10
69214;BME280;56325;47.030;18.518;2023-05-07T10:05:28;100542.94;;;21.93;57.50
69214;BME280;56325;47.030;18.518;2023-05-07T10:08:04;100545.87;;;22.01;55.56
69214;BME280;56325;47.030;18.518;2023-05-07T10:10:40;100530.38;;;22.18;55.46
69214;BME280;56325;47.030;18.518;2023-05-07T10:13:17;100533.59;;;22.54;56.20
69214;BME280;56325;47.030;18.518;2023-05-07T10:15:55;100531.00;;;22.56;53.52
69214;BME280;56325;47.030;18.518;2023-05-07T10:18:30;100526.25;;;22.83;52.73
69214;BME280;56325;47.030;18.518;2023-05-07T10:21:08;100530.69;;;22.60;53.64
69214;BME280;56325;47.030;18.518;2023-05-07T10:23:46;100530.06;;;22.67;55.10
69214;BME280;56325;47.030;18.518;2023-05-07T10:26:24;100528.91;;;22.31;54.45
69214;BME280;56325;47.030;18.518;2023-05-07T10:29:05;100530.06;;;22.67;56.33
69214;BME280;56325;47.030;18.518;2023-05-07T10:31:52;100526.28;;;22.65;54.22
69214;BME280;56325;47.030;18.518;2023-05-07T10:34:34;100523.22;;;22.95;54.13
69214;BME280;56325;47.030;18.518;2023-05-07T10:37:11;100520.53;;;23.29;54.86
69214;BME280;56325;47.030;18.518;2023-05-07T10:39:46;100525.03;;;23.58;53.58
69214;BME280;56325;47.030;18.518;2023-05-07T10:42:22;100518.37;;;23.35;53.33
69214;BME280;56325;47.030;18.518;2023-05-07T10:45:11;100526.66;;;23.40;50.78
69214;BME280;56325;47.030;18.518;2023-05-07T10:48:08;100527.44;;;23.28;50.57
69214;BME280;56325;47.030;18.518;2023-05-07T10:51:21;100524.44;;;23.12;50.82
69214;BME280;56325;47.030;18.518;2023-05-07T10:54:18;100520.81;;;23.51;49.03
69214;BME280;56325;47.030;18.518;2023-05-07T10:56:54;100509.91;;;23.61;51.21
69214;BME280;56325;47.030;18.518;2023-05-07T10:59:34;100506.94;;;23.80;50.01
69214;BME280;56325;47.030;18.518;2023-05-07T11:02:17;100511.13;;;23.86;50.38
69214;BME280;56325;47.030;18.518;2023-05-07T11:05:19;100506.44;;;24.02;50.54
69214;BME280;56325;47.030;18.518;2023-05-07T11:07:55;100513.25;;;24.28;50.73
69214;BME280;56325;47.030;18.518;2023-05-07T11:10:51;100509.88;;;24.29;49.32
69214;BME280;56325;47.030;18.518;2023-05-07T11:13:48;100510.03;;;24.24;50.18
69214;BME280;56325;47.030;18.518;2023-05-07T11:16:24;100516.59;;;24.05;50.73
69214;BME280;56325;47.030;18.518;2023-05-07T11:19:03;100510.47;;;23.94;51.27
69214;BME280;56325;47.030;18.518;2023-05-07T11:21:39;100508.19;;;23.92;50.91
69214;BME280;56325;47.030;18.518;2023-05-07T11:24:15;100510.38;;;23.86;53.33
69214;BME280;56325;47.030;18.518;2023-05-07T11:26:51;100511.78;;;24.13;53.73
69214;BME280;56325;47.030;18.518;2023-05-07T11:29:26;100509.00;;;24.34;50.24
69214;BME280;56325;47.030;18.518;2023-05-07T11:32:02;100511.28;;;24.85;51.78
69214;BME280;56325;47.030;18.518;2023-05-07T11:34:41;100510.44;;;24.28;49.55
69214;BME280;56325;47.030;18.518;2023-05-07T11:37:17;100514.91;;;23.89;51.10
69214;BME280;56325;47.030;18.518;2023-05-07T11:40:02;100509.78;;;23.67;53.27
69214;BME280;56325;47.030;18.518;2023-05-07T11:42:39;100516.56;;;23.24;51.90
69214;BME280;56325;47.030;18.518;2023-05-07T11:45:23;100514.87;;;23.42;52.74
69214;BME280;56325;47.030;18.518;2023-05-07T11:47:58;100520.19;;;23.93;52.31
69214;BME280;56325;47.030;18.518;2023-05-07T11:50:34;100520.56;;;23.76;50.11
69214;BME280;56325;47.030;18.518;2023-05-07T11:53:09;100507.75;;;24.01;51.54
69214;BME280;56325;47.030;18.518;2023-05-07T11:55:46;100519.44;;;23.92;49.71
69214;BME280;56325;47.030;18.518;2023-05-07T11:58:22;100511.91;;;23.87;49.87
69214;BME280;56325;47.030;18.518;2023-05-07T12:00:57;100505.84;;;23.83;49.77
69214;BME280;56325;47.030;18.518;2023-05-07T12:03:32;100511.31;;;23.68;49.04
69214;BME280;56325;47.030;18.518;2023-05-07T12:06:10;100529.69;;;23.56;49.27
69214;BME280;56325;47.030;18.518;2023-05-07T12:08:46;100517.41;;;23.32;49.76
69214;BME280;56325;47.030;18.518;2023-05-07T12:11:25;100520.00;;;23.17;48.67
69214;BME280;56325;47.030;18.518;2023-05-07T12:14:00;100519.63;;;23.47;50.59
69214;BME280;56325;47.030;18.518;2023-05-07T12:16:36;100513.94;;;24.41;48.99
69214;BME280;56325;47.030;18.518;2023-05-07T12:19:13;100498.88;;;24.80;48.65
69214;BME280;56325;47.030;18.518;2023-05-07T12:21:49;100508.78;;;24.53;49.35
69214;BME280;56325;47.030;18.518;2023-05-07T12:24:24;100502.25;;;24.58;51.26
69214;BME280;56325;47.030;18.518;2023-05-07T12:27:02;100498.56;;;24.92;48.83
69214;BME280;56325;47.030;18.518;2023-05-07T12:29:37;100496.12;;;25.24;47.76
69214;BME280;56325;47.030;18.518;2023-05-07T12:32:13;100490.81;;;25.57;46.68
69214;BME280;56325;47.030;18.518;2023-05-07T12:34:50;100484.06;;;25.60;44.83
69214;BME280;56325;47.030;18.518;2023-05-07T12:37:26;100484.37;;;25.92;44.51
69214;BME280;56325;47.030;18.518;2023-05-07T12:40:05;100482.28;;;25.77;45.00
69214;BME280;56325;47.030;18.518;2023-05-07T12:42:41;100481.91;;;25.81;43.51
69214;BME280;56325;47.030;18.518;2023-05-07T12:45:16;100488.37;;;25.61;44.00
69214;BME280;56325;47.030;18.518;2023-05-07T12:47:50;100483.63;;;25.40;45.39
69214;BME280;56325;47.030;18.518;2023-05-07T12:50:25;100478.31;;;24.65;45.82
69214;BME280;56325;47.030;18.518;2023-05-07T12:53:03;100480.97;;;24.70;46.53
69214;BME280;56325;47.030;18.518;2023-05-07T12:55:43;100485.59;;;24.60;45.62
69214;BME280;56325;47.030;18.518;2023-05-07T12:58:18;100493.12;;;24.65;46.37
69214;BME280;56325;47.030;18.518;2023-05-07T13:00:54;100477.34;;;25.19;46.29
69214;BME280;56325;47.030;18.518;2023-05-07T13:03:33;100478.19;;;25.42;45.04
69214;BME280;56325;47.030;18.518;2023-05-07T13:06:10;100482.84;;;25.84;42.87
69214;BME280;56325;47.030;18.518;2023-05-07T13:08:46;100476.28;;;25.89;43.40
69214;BME280;56325;47.030;18.518;2023-05-07T13:11:21;100480.00;;;25.76;42.37
69214;BME280;56325;47.030;18.518;2023-05-07T13:13:56;100468.22;;;25.41;41.13
69214;BME280;56325;47.030;18.518;2023-05-07T13:16:31;100470.84;;;25.39;43.33
69214;BME280;56325;47.030;18.518;2023-05-07T13:19:05;100469.31;;;25.74;43.00
69214;BME280;56325;47.030;18.518;2023-05-07T13:21:40;100459.94;;;25.87;42.77
69214;BME280;56325;47.030;18.518;2023-05-07T13:24:17;100474.28;;;25.53;39.65
69214;BME280;56325;47.030;18.518;2023-05-07T13:26:52;100458.69;;;25.44;39.63
69214;BME280;56325;47.030;18.518;2023-05-07T13:29:26;100460.59;;;25.57;41.54
69214;BME280;56325;47.030;18.518;2023-05-07T13:32:03;100457.03;;;25.57;42.47
69214;BME280;56325;47.030;18.518;2023-05-07T13:34:38;100449.88;;;25.56;41.92
69214;BME280;56325;47.030;18.518;2023-05-07T13:37:13;100456.56;;;25.89;42.45
69214;BME280;56325;47.030;18.518;2023-05-07T13:39:49;100451.00;;;25.53;42.11
69214;BME280;56325;47.030;18.518;2023-05-07T13:42:24;100446.59;;;25.80;42.20
69214;BME280;56325;47.030;18.518;2023-05-07T13:44:58;100443.81;;;25.95;41.01
69214;BME280;56325;47.030;18.518;2023-05-07T13:47:34;100442.31;;;26.48;39.49
69214;BME280;56325;47.030;18.518;2023-05-07T13:50:12;100436.47;;;25.92;39.60
69214;BME280;56325;47.030;18.518;2023-05-07T13:52:48;100439.28;;;26.30;41.34
69214;BME280;56325;47.030;18.518;2023-05-07T13:55:25;100435.16;;;26.54;40.29
69214;BME280;56325;47.030;18.518;2023-05-07T13:58:01;100428.41;;;26.50;40.89
69214;BME280;56325;47.030;18.518;2023-05-07T14:02:56;100431.62;;;25.34;42.82
69214;BME280;56325;47.030;18.518;2023-05-07T14:05:31;100431.62;;;25.34;42.82
69214;BME280;56325;47.030;18.518;2023-05-07T14:08:05;100432.97;;;24.97;42.42
69214;BME280;56325;47.030;18.518;2023-05-07T14:10:41;100432.59;;;25.44;44.13
69214;BME280;56325;47.030;18.518;2023-05-07T14:13:15;100427.44;;;25.71;42.46
69214;BME280;56325;47.030;18.518;2023-05-07T14:15:50;100416.94;;;25.94;42.00
69214;BME280;56325;47.030;18.518;2023-05-07T14:18:26;100424.53;;;25.48;43.20
69214;BME280;56325;47.030;18.518;2023-05-07T14:21:02;100425.38;;;25.87;41.73
69214;BME280;56325;47.030;18.518;2023-05-07T14:23:36;100431.56;;;25.70;41.63
69214;BME280;56325;47.030;18.518;2023-05-07T14:26:11;100429.06;;;25.59;42.99
69214;BME280;56325;47.030;18.518;2023-05-07T14:28:45;100430.84;;;25.85;43.89
69214;BME280;56325;47.030;18.518;2023-05-07T14:31:20;100431.59;;;26.38;41.78
69214;BME280;56325;47.030;18.518;2023-05-07T14:33:56;100428.38;;;26.11;42.42
69214;BME280;56325;47.030;18.518;2023-05-07T14:36:32;100426.69;;;25.86;43.42
69214;BME280;56325;47.030;18.518;2023-05-07T14:39:06;100430.06;;;25.76;43.08
69214;BME280;56325;47.030;18.518;2023-05-07T14:41:42;100422.94;;;25.83;42.92
69214;BME280;56325;47.030;18.518;2023-05-07T14:44:16;100426.50;;;26.29;43.66
69214;BME280;56325;47.030;18.518;2023-05-07T14:46:51;100432.31;;;25.78;44.52
69214;BME280;56325;47.030;18.518;2023-05-07T14:49:27;100430.66;;;25.90;44.39
69214;BME280;56325;47.030;18.518;2023-05-07T14:52:02;100431.00;;;25.71;43.79
69214;BME280;56325;47.030;18.518;2023-05-07T14:54:38;100439.44;;;25.20;45.11
69214;BME280;56325;47.030;18.518;2023-05-07T14:57:15;100440.09;;;24.98;44.93
69214;BME280;56325;47.030;18.518;2023-05-07T14:59:51;100444.06;;;24.74;45.63
69214;BME280;56325;47.030;18.518;2023-05-07T15:02:26;100440.66;;;24.39;46.06
69214;BME280;56325;47.030;18.518;2023-05-07T15:05:02;100430.13;;;25.40;45.49
69214;BME280;56325;47.030;18.518;2023-05-07T15:07:37;100434.59;;;25.28;44.32
69214;BME280;56325;47.030;18.518;2023-05-07T15:10:11;100429.66;;;25.06;44.86
69214;BME280;56325;47.030;18.518;2023-05-07T15:12:46;100425.16;;;25.10;44.64
69214;BME280;56325;47.030;18.518;2023-05-07T15:15:21;100426.63;;;25.04;44.48
69214;BME280;56325;47.030;18.518;2023-05-07T15:17:56;100436.84;;;25.30;44.83
69214;BME280;56325;47.030;18.518;2023-05-07T15:20:35;100437.47;;;25.43;43.94
69214;BME280;56325;47.030;18.518;2023-05-07T15:23:10;100444.44;;;25.50;44.28
69214;BME280;56325;47.030;18.518;2023-05-07T15:25:47;100436.75;;;25.58;44.11
69214;BME280;56325;47.030;18.518;2023-05-07T15:28:24;100442.59;;;24.80;44.51
69214;BME280;56325;47.030;18.518;2023-05-07T15:31:00;100438.38;;;24.95;44.72
69214;BME280;56325;47.030;18.518;2023-05-07T15:33:35;100442.09;;;24.90;43.77
69214;BME280;56325;47.030;18.518;2023-05-07T15:36:11;100439.44;;;25.12;44.27
69214;BME280;56325;47.030;18.518;2023-05-07T15:38:46;100448.78;;;25.15;43.76
69214;BME280;56325;47.030;18.518;2023-05-07T15:41:21;100449.91;;;24.76;43.29
69214;BME280;56325;47.030;18.518;2023-05-07T15:43:56;100445.03;;;25.05;45.71
69214;BME280;56325;47.030;18.518;2023-05-07T15:46:30;100445.78;;;25.05;43.95
69214;BME280;56325;47.030;18.518;2023-05-07T15:49:06;100443.16;;;24.79;44.53
69214;BME280;56325;47.030;18.518;2023-05-07T15:51:43;100438.28;;;25.08;44.14
69214;BME280;56325;47.030;18.518;2023-05-07T18:45:03;100591.47;;;17.72;51.06
69214;BME280;56325;47.030;18.518;2023-05-07T18:47:39;100591.47;;;17.72;51.06
69214;BME280;56325;47.030;18.518;2023-05-07T18:50:13;100602.00;;;17.14;52.20
69214;BME280;56325;47.030;18.518;2023-05-07T18:52:49;100596.81;;;17.32;52.04
69214;BME280;56325;47.030;18.518;2023-05-07T18:55:24;100598.78;;;17.21;52.67
69214;BME280;56325;47.030;18.518;2023-05-07T18:57:59;100606.59;;;17.17;52.47
69214;BME280;56325;47.030;18.518;2023-05-07T19:00:35;100608.44;;;17.31;52.47
69214;BME280;56325;47.030;18.518;2023-05-07T19:03:09;100620.50;;;17.22;53.58
69214;BME280;56325;47.030;18.518;2023-05-07T19:05:44;100632.38;;;17.23;54.00
69214;BME280;56325;47.030;18.518;2023-05-07T19:08:19;100625.53;;;17.18;53.08
69214;BME280;56325;47.030;18.518;2023-05-07T19:10:54;100635.41;;;17.19;53.50
69214;BME280;56325;47.030;18.518;2023-05-07T19:13:30;100633.16;;;17.23;53.90
69214;BME280;56325;47.030;18.518;2023-05-07T19:16:06;100644.31;;;17.29;52.68
69214;BME280;56325;47.030;18.518;2023-05-07T19:18:44;100644.16;;;17.07;53.30
69214;BME280;56325;47.030;18.518;2023-05-07T19:21:18;100655.22;;;17.01;53.44
69214;BME280;56325;47.030;18.518;2023-05-07T19:23:53;100655.66;;;16.94;52.57
69214;BME280;56325;47.030;18.518;2023-05-07T19:26:31;100661.44;;;18.29;71.24
69214;BME280;56325;47.030;18.518;2023-05-07T19:29:06;100667.53;;;18.28;59.01
69214;BME280;56325;47.030;18.518;2023-05-07T19:31:51;100665.28;;;17.73;52.73
69214;BME280;56325;47.030;18.518;2023-05-07T19:34:26;100660.56;;;17.47;52.27
69214;BME280;56325;47.030;18.518;2023-05-07T19:37:02;100665.56;;;17.32;52.56
69214;BME280;56325;47.030;18.518;2023-05-07T19:39:37;100670.09;;;17.35;53.16
69214;BME280;56325;47.030;18.518;2023-05-07T19:42:12;100664.00;;;17.25;52.20
69214;BME280;56325;47.030;18.518;2023-05-07T19:44:47;100665.44;;;17.15;52.37
69214;BME280;56325;47.030;18.518;2023-05-07T19:47:24;100657.41;;;16.91;53.54
69214;BME280;56325;47.030;18.518;2023-05-07T19:49:59;100656.16;;;16.92;52.65
69214;BME280;56325;47.030;18.518;2023-05-07T19:52:35;100658.06;;;16.81;53.07
69214;BME280;56325;47.030;18.518;2023-05-07T19:55:10;100663.53;;;16.44;53.46
69214;BME280;56325;47.030;18.518;2023-05-07T19:57:45;100669.16;;;16.29;53.88
69214;BME280;56325;47.030;18.518;2023-05-07T20:00:22;100669.59;;;16.48;53.71
69214;BME280;56325;47.030;18.518;2023-05-07T20:03:01;100674.94;;;16.25;54.51
69214;BME280;56325;47.030;18.518;2023-05-07T20:05:36;100677.00;;;16.30;53.77
69214;BME280;56325;47.030;18.518;2023-05-07T20:08:10;100683.41;;;16.16;54.58
69214;BME280;56325;47.030;18.518;2023-05-07T20:10:46;100680.69;;;16.22;54.67
69214;BME280;56325;47.030;18.518;2023-05-07T20:13:21;100678.41;;;16.20;55.05
69214;BME280;56325;47.030;18.518;2023-05-07T20:15:56;100683.09;;;16.34;54.88
69214;BME280;56325;47.030;18.518;2023-05-07T20:18:32;100678.59;;;16.37;55.07
69214;BME280;56325;47.030;18.518;2023-05-07T20:21:07;100683.03;;;16.29;54.92
69214;BME280;56325;47.030;18.518;2023-05-07T20:23:42;100682.34;;;16.14;54.99
69214;BME280;56325;47.030;18.518;2023-05-07T20:26:16;100678.59;;;16.17;55.64
69214;BME280;56325;47.030;18.518;2023-05-07T20:28:51;100695.78;;;15.80;55.67
69214;BME280;56325;47.030;18.518;2023-05-07T20:31:26;100702.63;;;15.64;56.80
69214;BME280;56325;47.030;18.518;2023-05-07T20:34:02;100702.03;;;15.95;56.48
69214;BME280;56325;47.030;18.518;2023-05-07T20:36:36;100703.75;;;15.72;56.44
69214;BME280;56325;47.030;18.518;2023-05-07T20:39:11;100722.91;;;15.91;56.98
69214;BME280;56325;47.030;18.518;2023-05-07T20:41:47;100727.94;;;15.72;57.64
69214;BME280;56325;47.030;18.518;2023-05-07T20:44:22;100734.06;;;15.76;57.20
69214;BME280;56325;47.030;18.518;2023-05-07T20:46:57;100742.00;;;16.03;57.53
69214;BME280;56325;47.030;18.518;2023-05-07T20:49:33;100729.50;;;15.93;57.45
69214;BME280;56325;47.030;18.518;2023-05-07T20:52:08;100738.09;;;15.60;57.94
69214;BME280;56325;47.030;18.518;2023-05-07T20:54:42;100750.03;;;15.66;58.32
69214;BME280;56325;47.030;18.518;2023-05-07T20:57:19;100746.47;;;15.81;58.77
69214;BME280;56325;47.030;18.518;2023-05-07T20:59:53;100750.09;;;15.87;58.34
69214;BME280;56325;47.030;18.518;2023-05-07T21:02:28;100761.25;;;15.92;58.34
69214;BME280;56325;47.030;18.518;2023-05-07T21:05:05;100755.72;;;16.13;57.68
69214;BME280;56325;47.030;18.518;2023-05-07T21:07:39;100757.31;;;15.99;58.07
69214;BME280;56325;47.030;18.518;2023-05-07T21:10:14;100759.59;;;16.00;58.13
69214;BME280;56325;47.030;18.518;2023-05-07T21:12:48;100760.66;;;15.68;58.72
69214;BME280;56325;47.030;18.518;2023-05-07T21:15:23;100773.09;;;15.43;59.89
69214;BME280;56325;47.030;18.518;2023-05-07T21:17:58;100774.91;;;15.46;60.76
69214;BME280;56325;47.030;18.518;2023-05-07T21:20:34;100777.03;;;15.36;60.82
69214;BME280;56325;47.030;18.518;2023-05-07T21:23:09;100775.50;;;15.50;60.71
69214;BME280;56325;47.030;18.518;2023-05-07T21:25:43;100786.47;;;15.15;61.45
69214;BME280;56325;47.030;18.518;2023-05-07T21:28:19;100787.81;;;15.05;62.40
69214;BME280;56325;47.030;18.518;2023-05-07T21:30:54;100790.97;;;15.13;62.22
69214;BME280;56325;47.030;18.518;2023-05-07T21:33:28;100792.00;;;15.00;62.62